Time;durP1;ratioP1;P1;durP2;ratioP2;P2;SDS_P1;SDS_P2;PMS_P1;PMS_P2;Temp;Humidity;BMP_temperature;BMP_pressure;BME280_temperature;BME280_humidity;BME280_pressure;Samples;Min_cycle;Max_cycle;Signal;HPM_P1;HPM_P2
2021/08/31 00:01:36;;;;;;;4.80;4.10;;;;;;;13.61;92.71;98411.98;111262;1203;61111;-89
2021/08/31 00:04:02;;;;;;;4.20;3.90;;;;;;;13.62;92.88;98414.40;111238;1203;62625;-89
2021/08/31 00:06:29;;;;;;;4.70;4.30;;;;;;;13.63;92.82;98414.15;111184;1204;61123;-89
2021/08/31 00:08:56;;;;;;;4.60;4.10;;;;;;;13.64;92.71;98411.20;111208;1197;61101;-89
2021/08/31 00:11:23;;;;;;;4.70;4.30;;;;;;;13.65;92.91;98410.75;111258;1203;66145;-90
2021/08/31 00:13:49;;;;;;;4.80;4.30;;;;;;;13.66;93.02;98408.55;111259;1200;61091;-89
2021/08/31 00:16:17;;;;;;;4.90;4.50;;;;;;;13.65;93.10;98406.32;111289;1204;62658;-89
2021/08/31 00:18:44;;;;;;;6.00;4.50;;;;;;;13.61;92.91;98409.62;111396;1197;61063;-89
2021/08/31 00:21:11;;;;;;;4.60;4.10;;;;;;;13.60;92.95;98408.85;111263;1196;61009;-89
2021/08/31 00:23:38;;;;;;;4.60;4.20;;;;;;;13.59;93.06;98408.08;111126;1204;66000;-89
2021/08/31 00:26:04;;;;;;;5.50;4.50;;;;;;;13.58;93.19;98410.98;111242;1204;61081;-87
2021/08/31 00:28:31;;;;;;;6.30;4.60;;;;;;;13.58;93.30;98414.41;111151;1204;63984;-88
2021/08/31 00:30:58;;;;;;;7.10;4.40;;;;;;;13.58;93.50;98414.59;111213;1197;61085;-89
2021/08/31 00:33:25;;;;;;;5.80;5.30;;;;;;;13.56;93.48;98416.48;111239;1197;61492;-89
2021/08/31 00:35:52;;;;;;;4.60;4.20;;;;;;;13.57;93.68;98412.30;111237;1196;64706;-87
2021/08/31 00:38:18;;;;;;;5.40;4.90;;;;;;;13.58;93.83;98412.55;111264;1203;61114;-88
2021/08/31 00:40:47;;;;;;;5.20;4.80;;;;;;;13.57;93.77;98408.55;111273;1203;62612;-87
2021/08/31 00:43:17;;;;;;;5.30;4.90;;;;;;;13.57;93.87;98410.00;111195;1195;61079;-88
2021/08/31 00:45:43;;;;;;;6.20;5.60;;;;;;;13.57;93.92;98413.41;111284;1196;61199;-87
2021/08/31 00:48:10;;;;;;;6.00;5.40;;;;;;;13.57;94.02;98408.45;111205;1204;66002;-88
2021/08/31 00:50:39;;;;;;;6.00;5.30;;;;;;;13.55;94.09;98409.33;111249;1204;61312;-87
2021/08/31 00:53:05;;;;;;;5.40;4.90;;;;;;;13.52;94.43;98408.68;111241;1204;62578;-87
2021/08/31 00:55:32;;;;;;;6.40;5.40;;;;;;;13.49;94.61;98414.27;111234;1203;61089;-88
2021/08/31 00:57:59;;;;;;;8.70;6.40;;;;;;;13.47;94.97;98421.98;111265;1204;61096;-88
2021/08/31 01:00:25;;;;;;;6.60;5.30;;;;;;;13.44;95.21;98419.73;111217;1204;66037;-88
2021/08/31 01:02:53;;;;;;;5.30;4.90;;;;;;;13.41;95.47;98419.65;111184;1203;60809;-89
2021/08/31 01:05:20;;;;;;;6.90;5.50;;;;;;;13.37;95.56;98416.55;111188;1204;63979;-87
2021/08/31 01:07:47;;;;;;;8.20;6.40;;;;;;;13.33;95.82;98414.08;111189;1204;61032;-87
2021/08/31 01:10:15;;;;;;;7.10;6.30;;;;;;;13.31;95.90;98414.48;111255;1195;61072;-89
2021/08/31 01:12:43;;;;;;;6.40;5.80;;;;;;;13.28;96.10;98419.39;111331;1196;66008;-89
2021/08/31 01:15:15;;;;;;;7.60;5.80;;;;;;;13.26;96.42;98418.66;111275;1204;61073;-88
2021/08/31 01:17:42;;;;;;;6.90;5.90;;;;;;;13.22;96.45;98419.86;111197;1203;64011;-90
2021/08/31 01:20:09;;;;;;;6.20;5.60;;;;;;;13.20;96.68;98418.58;111187;1204;61762;-88
2021/08/31 01:22:36;;;;;;;6.10;5.50;;;;;;;13.17;96.82;98417.02;111254;1196;61504;-88
2021/08/31 01:25:06;;;;;;;6.60;5.70;;;;;;;13.15;96.91;98419.52;111210;1205;64637;-88
2021/08/31 01:27:34;;;;;;;6.50;5.90;;;;;;;13.13;97.31;98418.42;111279;1197;61091;-89
2021/08/31 01:30:00;;;;;;;6.80;6.20;;;;;;;13.13;97.41;98415.61;111238;1205;63792;-89
2021/08/31 01:32:27;;;;;;;7.10;6.40;;;;;;;13.13;97.46;98413.13;111239;1204;61066;-90
2021/08/31 01:34:54;;;;;;;6.40;5.80;;;;;;;13.13;97.49;98415.44;111169;1197;61079;-89
2021/08/31 01:37:22;;;;;;;6.90;5.70;;;;;;;13.12;97.65;98413.21;111188;1197;65683;-89
2021/08/31 01:39:48;;;;;;;6.70;5.70;;;;;;;13.12;97.60;98409.66;111214;1197;61091;-89
2021/08/31 01:42:15;;;;;;;6.80;6.20;;;;;;;13.12;97.62;98406.96;111226;1204;62751;-88
2021/08/31 01:44:42;;;;;;;7.10;6.00;;;;;;;13.13;97.66;98409.73;111276;1204;61073;-87
2021/08/31 01:47:11;;;;;;;7.00;5.40;;;;;;;13.13;97.80;98405.64;111190;1197;61516;-87
2021/08/31 01:49:38;;;;;;;5.90;5.30;;;;;;;13.11;97.71;98401.89;111265;1203;65697;-90
2021/08/31 01:52:05;;;;;;;7.10;5.80;;;;;;;13.11;97.93;98403.33;111274;1204;61156;-89
2021/08/31 01:54:32;;;;;;;6.90;5.90;;;;;;;13.10;98.02;98400.39;111257;1203;62657;-87
2021/08/31 01:56:59;;;;;;;6.30;5.70;;;;;;;13.09;98.22;98398.30;111230;1200;61535;-89
2021/08/31 01:59:25;;;;;;;7.00;6.30;;;;;;;13.08;98.19;98396.83;111290;1196;61063;-89
2021/08/31 02:01:52;;;;;;;6.20;5.60;;;;;;;13.08;98.22;98394.16;111171;1197;65986;-89
2021/08/31 02:04:19;;;;;;;7.20;6.30;;;;;;;13.07;98.29;98397.05;111255;1203;61106;-89
2021/08/31 02:06:45;;;;;;;7.20;6.40;;;;;;;13.08;98.36;98391.79;111225;1204;62639;-89
2021/08/31 02:09:12;;;;;;;5.80;5.30;;;;;;;13.10;98.52;98392.30;111193;1204;61149;-88
2021/08/31 02:11:38;;;;;;;6.10;5.50;;;;;;;13.11;98.51;98394.35;110998;1197;59167;-89
2021/08/31 02:14:05;;;;;;;6.50;5.90;;;;;;;13.12;98.53;98393.92;111082;1204;65681;-88
2021/08/31 02:16:33;;;;;;;7.20;6.50;;;;;;;13.13;98.72;98393.86;110872;1200;61098;-87
2021/08/31 02:18:59;;;;;;;6.10;5.50;;;;;;;13.11;98.63;98394.36;110993;1204;63655;-90
2021/08/31 02:21:26;;;;;;;6.40;5.80;;;;;;;13.10;98.71;98389.64;111117;1204;61017;-88
2021/08/31 02:23:53;;;;;;;6.20;5.60;;;;;;;13.08;98.77;98386.08;113507;1196;61001;-87
2021/08/31 02:26:19;;;;;;;7.50;6.10;;;;;;;13.06;99.11;98382.48;113854;1197;64615;-86
2021/08/31 02:28:46;;;;;;;5.80;5.30;;;;;;;13.05;99.07;98382.98;113557;1197;59587;-88
2021/08/31 02:31:13;;;;;;;6.30;5.50;;;;;;;13.04;99.25;98380.77;111113;1204;63961;-89
2021/08/31 02:33:39;;;;;;;6.40;5.80;;;;;;;13.03;99.30;98379.73;111100;1205;61161;-89
2021/08/31 02:36:06;;;;;;;7.10;5.80;;;;;;;13.00;99.25;98376.79;111180;1204;61221;-88
2021/08/31 02:38:33;;;;;;;7.70;6.30;;;;;;;12.98;99.42;98378.96;111075;1205;64359;-88
2021/08/31 02:40:59;;;;;;;7.30;6.60;;;;;;;12.95;99.53;98378.30;111138;1204;61584;-89
2021/08/31 02:43:26;;;;;;;6.70;5.90;;;;;;;12.93;99.69;98372.71;111205;1203;64435;-89
2021/08/31 02:45:53;;;;;;;6.60;6.00;;;;;;;12.92;99.80;98371.02;111144;1204;61083;-89
2021/08/31 02:48:19;;;;;;;8.00;5.80;;;;;;;12.91;99.88;98369.54;111222;1197;61109;-89
2021/08/31 02:50:46;;;;;;;6.70;6.10;;;;;;;12.88;99.98;98361.05;111266;1204;65705;-89
2021/08/31 02:53:12;;;;;;;7.10;6.40;;;;;;;12.87;100.00;98361.58;111292;1204;61130;-88
2021/08/31 02:55:39;;;;;;;7.60;6.80;;;;;;;12.85;100.00;98361.66;111251;1204;63915;-88
2021/08/31 02:58:06;;;;;;;7.80;7.00;;;;;;;12.86;100.00;98360.34;111244;1203;60960;-88
2021/08/31 03:00:33;;;;;;;7.50;6.80;;;;;;;12.86;100.00;98358.39;111233;1198;61098;-89
2021/08/31 03:02:59;;;;;;;7.60;6.90;;;;;;;12.84;100.00;98356.84;111255;1205;64651;-89
2021/08/31 03:05:26;;;;;;;7.50;6.70;;;;;;;12.83;100.00;98355.31;111240;1197;61054;-87
2021/08/31 03:07:53;;;;;;;8.20;7.40;;;;;;;12.81;100.00;98353.13;111183;1204;62374;-89
2021/08/31 03:10:22;;;;;;;8.20;7.40;;;;;;;12.80;100.00;98353.45;111238;1203;61086;-88
2021/08/31 03:12:49;;;;;;;9.50;7.60;;;;;;;12.78;100.00;98355.34;111205;1199;61057;-89
2021/08/31 03:15:16;;;;;;;9.20;8.30;;;;;;;12.77;100.00;98350.78;111237;1204;65992;-89
2021/08/31 03:17:43;;;;;;;8.90;8.00;;;;;;;12.77;100.00;98350.12;111222;1203;61076;-89
2021/08/31 03:20:10;;;;;;;10.00;8.10;;;;;;;12.77;100.00;98350.61;111195;1204;63958;-88
2021/08/31 03:22:37;;;;;;;9.00;8.10;;;;;;;12.77;100.00;98349.96;111155;1197;61168;-89
2021/08/31 03:25:04;;;;;;;10.00;9.00;;;;;;;12.76;100.00;98353.77;111165;1199;60984;-88
2021/08/31 03:27:31;;;;;;;9.90;8.90;;;;;;;12.76;100.00;98349.84;111161;1203;65712;-88
2021/08/31 03:29:58;;;;;;;11.30;9.00;;;;;;;12.78;100.00;98349.67;111217;1204;61090;-88
2021/08/31 03:32:24;;;;;;;10.20;9.20;;;;;;;12.79;100.00;98347.80;111229;1203;62308;-88
2021/08/31 03:34:51;;;;;;;9.90;8.40;;;;;;;12.79;100.00;98351.89;111234;1197;61081;-88
2021/08/31 03:37:18;;;;;;;9.60;8.60;;;;;;;12.78;100.00;98352.70;111230;1203;61090;-89
2021/08/31 03:39:44;;;;;;;9.70;8.80;;;;;;;12.78;100.00;98352.20;111244;1203;64397;-89
2021/08/31 03:42:11;;;;;;;11.20;10.00;;;;;;;12.77;100.00;98351.15;111254;1203;61137;-89
2021/08/31 03:44:37;;;;;;;10.90;9.90;;;;;;;12.77;100.00;98349.77;111190;1204;63990;-89
2021/08/31 03:47:04;;;;;;;10.50;9.40;;;;;;;12.76;100.00;98351.25;111156;1203;61117;-89
2021/08/31 03:49:32;;;;;;;10.40;9.40;;;;;;;12.75;100.00;98354.20;111192;1197;61083;-89
2021/08/31 03:51:58;;;;;;;9.80;8.70;;;;;;;12.73;100.00;98351.45;111102;1200;64673;-88
2021/08/31 03:54:25;;;;;;;9.40;8.50;;;;;;;12.73;100.00;98352.69;111210;1204;61027;-88
2021/08/31 03:56:51;;;;;;;9.20;8.30;;;;;;;12.73;100.00;98354.49;111237;1203;62431;-88
2021/08/31 03:59:18;;;;;;;9.50;8.60;;;;;;;12.72;100.00;98353.11;111227;1203;61079;-89
2021/08/31 04:01:45;;;;;;;10.80;9.60;;;;;;;12.72;100.00;98353.11;111262;1201;61047;-88
2021/08/31 04:04:11;;;;;;;10.60;9.30;;;;;;;12.74;100.00;98355.66;111232;1197;66002;-88
2021/08/31 04:06:38;;;;;;;9.90;8.90;;;;;;;12.76;100.00;98352.69;111176;1204;61032;-88
2021/08/31 04:09:05;;;;;;;9.80;8.90;;;;;;;12.77;100.00;98354.16;111195;1204;62613;-88
2021/08/31 04:11:32;;;;;;;11.80;10.40;;;;;;;12.78;100.00;98353.77;111226;1205;61128;-90
2021/08/31 04:13:59;;;;;;;10.20;9.00;;;;;;;12.79;100.00;98351.52;111135;1198;61139;-89
2021/08/31 04:16:25;;;;;;;10.00;9.00;;;;;;;12.80;100.00;98353.02;111216;1203;64344;-89
2021/08/31 04:18:52;;;;;;;10.30;9.30;;;;;;;12.81;100.00;98353.36;111284;1203;61072;-89
2021/08/31 04:21:19;;;;;;;11.20;9.80;;;;;;;12.79;100.00;98350.61;111199;1204;63789;-89
2021/08/31 04:23:45;;;;;;;11.60;10.40;;;;;;;12.79;100.00;98351.91;111248;1203;61557;-89
2021/08/31 04:26:12;;;;;;;12.00;9.40;;;;;;;12.79;100.00;98351.18;111283;1203;61023;-89
2021/08/31 04:28:38;;;;;;;11.50;10.30;;;;;;;12.81;100.00;98352.12;111242;1203;64428;-89
2021/08/31 04:31:05;;;;;;;10.00;9.00;;;;;;;12.81;100.00;98350.66;111238;1204;61063;-89
2021/08/31 04:33:32;;;;;;;10.80;9.70;;;;;;;12.81;100.00;98350.66;111224;1204;62640;-90
2021/08/31 04:35:58;;;;;;;10.00;9.00;;;;;;;12.81;100.00;98347.11;111198;1204;61097;-89
2021/08/31 04:38:25;;;;;;;10.40;9.30;;;;;;;12.81;100.00;98347.42;111250;1197;60955;-90
2021/08/31 04:40:52;;;;;;;11.10;10.00;;;;;;;12.82;100.00;98348.63;111273;1203;65672;-89
2021/08/31 04:43:19;;;;;;;10.50;9.40;;;;;;;12.83;100.00;98348.73;111240;1204;61066;-89
2021/08/31 04:45:45;;;;;;;11.50;10.40;;;;;;;12.83;100.00;98345.27;111215;1204;64093;-89
2021/08/31 04:48:12;;;;;;;11.90;10.00;;;;;;;12.84;100.00;98345.77;111224;1203;61124;-89
2021/08/31 04:50:39;;;;;;;11.10;10.00;;;;;;;12.84;100.00;98348.59;111260;1197;61162;-88
2021/08/31 04:53:06;;;;;;;13.00;11.80;;;;;;;12.85;100.00;98343.89;111258;1204;64441;-89
2021/08/31 04:55:32;;;;;;;13.10;11.80;;;;;;;12.87;100.00;98343.69;111258;1203;61050;-89
2021/08/31 04:58:00;;;;;;;12.50;11.20;;;;;;;12.89;100.00;98345.86;111282;1203;62586;-88
2021/08/31 05:00:27;;;;;;;12.10;10.90;;;;;;;12.91;100.00;98342.99;111213;1198;61078;-89
2021/08/31 05:02:56;;;;;;;12.60;11.40;;;;;;;12.93;100.00;98340.44;111199;1196;61519;-89
2021/08/31 05:05:23;;;;;;;12.00;10.80;;;;;;;12.94;100.00;98340.92;111320;1197;65654;-90
2021/08/31 05:07:50;;;;;;;13.10;10.80;;;;;;;12.93;100.00;98335.30;111224;1203;61804;-92
2021/08/31 05:10:17;;;;;;;11.20;10.20;;;;;;;12.94;100.00;98334.31;111169;1204;62581;-91
2021/08/31 05:12:44;;;;;;;12.50;11.20;;;;;;;12.96;100.00;98339.16;111231;1198;61175;-91
2021/08/31 05:15:12;;;;;;;11.90;10.70;;;;;;;12.98;100.00;98334.21;111264;1204;61003;-91
2021/08/31 05:17:39;;;;;;;13.80;11.80;;;;;;;12.99;100.00;98332.17;111260;1204;66023;-91
2021/08/31 05:20:06;;;;;;;10.90;9.90;;;;;;;12.99;100.00;98331.44;111259;1198;61029;-90
2021/08/31 05:22:33;;;;;;;10.90;9.90;;;;;;;12.99;100.00;98332.11;111260;1204;72684;-90
2021/08/31 05:25:01;;;;;;;11.50;10.40;;;;;;;13.01;100.00;98337.16;111182;1204;61130;-90
2021/08/31 05:27:29;;;;;;;11.30;10.20;;;;;;;13.02;100.00;98340.45;111210;1197;61082;-91
2021/08/31 05:29:56;;;;;;;12.20;10.90;;;;;;;13.04;100.00;98341.52;111215;1204;64630;-90
2021/08/31 05:32:24;;;;;;;10.80;9.70;;;;;;;13.09;100.00;98342.63;111307;1198;61140;-90
2021/08/31 05:34:50;;;;;;;10.80;9.80;;;;;;;13.15;100.00;98345.33;111494;1204;62630;-92
2021/08/31 05:37:17;;;;;;;11.20;10.10;;;;;;;13.17;100.00;98346.75;111211;1198;61085;-90
2021/08/31 05:39:44;;;;;;;12.20;11.00;;;;;;;13.19;100.00;98346.64;111239;1200;60983;-90
2021/08/31 05:42:11;;;;;;;11.10;10.00;;;;;;;13.23;100.00;98347.30;111210;1204;64445;-90
2021/08/31 05:44:39;;;;;;;11.90;10.80;;;;;;;13.30;100.00;98344.95;111228;1204;61064;-90
2021/08/31 05:47:07;;;;;;;12.60;11.40;;;;;;;13.33;100.00;98349.27;111199;1197;62628;-89
2021/08/31 05:49:35;;;;;;;11.00;10.00;;;;;;;13.36;100.00;98349.63;111241;1204;60977;-91
2021/08/31 05:52:03;;;;;;;10.90;9.80;;;;;;;13.43;100.00;98349.16;111258;1198;61214;-90
2021/08/31 05:54:30;;;;;;;11.60;10.40;;;;;;;13.51;100.00;98347.95;111290;1204;65116;-91
2021/08/31 05:56:58;;;;;;;12.00;10.10;;;;;;;13.60;100.00;98341.23;111323;1198;69365;-89
2021/08/31 05:59:25;;;;;;;10.90;9.80;;;;;;;13.61;100.00;98345.19;111348;1199;62717;-91
2021/08/31 06:01:52;;;;;;;11.00;10.00;;;;;;;13.59;100.00;98347.70;111195;1204;60970;-92
2021/08/31 06:04:22;;;;;;;11.60;10.30;;;;;;;13.59;100.00;98348.09;111311;1204;61032;-90
2021/08/31 06:06:49;;;;;;;11.00;9.80;;;;;;;13.60;100.00;98343.02;111230;1204;66018;-92
2021/08/31 06:09:16;;;;;;;12.20;10.90;;;;;;;13.64;100.00;98341.54;111321;1197;61802;-89
2021/08/31 06:11:42;;;;;;;11.40;10.10;;;;;;;13.70;100.00;98341.20;111203;1204;65058;-90
2021/08/31 06:14:09;;;;;;;11.50;10.30;;;;;;;13.74;100.00;98342.47;111330;1198;61133;-92
2021/08/31 06:16:37;;;;;;;10.70;9.70;;;;;;;13.75;100.00;98340.70;111505;1201;61265;-88
2021/08/31 06:19:04;;;;;;;9.60;8.70;;;;;;;13.79;100.00;98344.32;111352;1206;64722;-91
2021/08/31 06:21:30;;;;;;;10.10;9.20;;;;;;;13.84;100.00;98342.42;111139;1206;61078;-92
2021/08/31 06:23:57;;;;;;;10.80;9.30;;;;;;;13.94;100.00;98344.73;111332;1205;62676;-89
2021/08/31 06:26:24;;;;;;;10.40;9.40;;;;;;;14.07;100.00;98343.94;110852;1206;61190;-90
2021/08/31 06:28:51;;;;;;;10.70;9.70;;;;;;;14.23;100.00;98340.83;111088;1201;61109;-90
2021/08/31 06:31:18;;;;;;;10.30;9.30;;;;;;;14.41;100.00;98337.91;111144;1206;65978;-90
2021/08/31 06:33:46;;;;;;;10.30;9.30;;;;;;;14.52;100.00;98336.56;111190;1206;61119;-89
2021/08/31 06:36:14;;;;;;;9.50;8.60;;;;;;;14.58;100.00;98337.60;111120;1203;62766;-90
2021/08/31 06:38:41;;;;;;;9.30;8.40;;;;;;;14.62;100.00;98341.83;111202;1197;61049;-90
2021/08/31 06:41:09;;;;;;;9.80;8.90;;;;;;;14.65;100.00;98347.64;111204;1198;61093;-90
2021/08/31 06:43:36;;;;;;;9.30;8.40;;;;;;;14.67;100.00;98349.98;111264;1206;64761;-90
2021/08/31 06:46:03;;;;;;;8.30;7.50;;;;;;;14.64;100.00;98346.54;110948;1206;61088;-91
2021/08/31 06:48:30;;;;;;;8.30;7.60;;;;;;;14.64;100.00;98344.40;111098;1205;64030;-90
2021/08/31 06:50:56;;;;;;;8.80;7.80;;;;;;;14.77;99.91;98339.73;111123;1206;61145;-89
2021/08/31 06:53:23;;;;;;;7.50;6.90;;;;;;;14.96;99.27;98340.28;111230;1206;61084;-89
2021/08/31 06:55:50;;;;;;;8.10;7.40;;;;;;;15.14;98.75;98343.51;111152;1205;64632;-90
2021/08/31 06:58:16;;;;;;;7.80;7.10;;;;;;;15.30;98.44;98340.73;110882;1207;61012;-89
2021/08/31 07:00:43;;;;;;;7.40;6.70;;;;;;;15.55;98.31;98335.98;110902;1207;63989;-89
2021/08/31 07:03:10;;;;;;;7.60;6.90;;;;;;;15.65;97.58;98340.43;111138;1206;61178;-89
2021/08/31 07:05:36;;;;;;;6.80;6.10;;;;;;;15.62;97.38;98341.64;111203;1198;61483;-91
2021/08/31 07:08:03;;;;;;;6.40;5.90;;;;;;;15.56;97.34;98346.98;111139;1206;66005;-88
2021/08/31 07:10:30;;;;;;;6.40;5.80;;;;;;;15.51;97.36;98343.59;111206;1200;61046;-88
2021/08/31 07:12:57;;;;;;;6.60;5.30;;;;;;;15.44;97.25;98346.53;111159;1199;63916;-88
2021/08/31 07:15:24;;;;;;;6.90;5.50;;;;;;;15.42;97.33;98347.48;111173;1206;61049;-89
2021/08/31 07:17:50;;;;;;;5.70;5.20;;;;;;;15.50;97.27;98350.30;111210;1197;61145;-89
2021/08/31 07:20:17;;;;;;;6.50;5.90;;;;;;;15.60;97.05;98348.40;111203;1204;64629;-88
2021/08/31 07:22:43;;;;;;;5.50;5.10;;;;;;;15.61;97.01;98352.30;111243;1200;61056;-88
2021/08/31 07:25:11;;;;;;;6.40;5.70;;;;;;;15.51;96.86;98353.16;111240;1204;63889;-87
2021/08/31 07:27:37;;;;;;;5.30;3.90;;;;;;;15.45;96.79;98351.80;111208;1197;61093;-88
2021/08/31 07:30:05;;;;;;;4.50;4.10;;;;;;;15.47;96.94;98353.22;111234;1198;61068;-89
2021/08/31 07:32:31;;;;;;;4.40;3.80;;;;;;;15.48;97.11;98353.63;111165;1204;66301;-88
2021/08/31 07:34:58;;;;;;;3.20;3.00;;;;;;;15.44;97.13;98353.84;111243;1205;61025;-88
2021/08/31 07:37:25;;;;;;;4.30;3.60;;;;;;;15.35;96.83;98353.10;111229;1204;63994;-89
2021/08/31 07:39:52;;;;;;;4.00;3.70;;;;;;;15.31;97.04;98347.68;111200;1197;61659;-89
2021/08/31 07:42:18;;;;;;;3.70;3.40;;;;;;;15.37;97.26;98346.48;111244;1204;61104;-89
2021/08/31 07:44:45;;;;;;;3.20;2.90;;;;;;;15.47;97.26;98350.16;111200;1204;66001;-89
2021/08/31 07:47:13;;;;;;;3.60;3.00;;;;;;;15.52;96.91;98349.17;111167;1204;61085;-89
2021/08/31 07:49:40;;;;;;;3.00;2.70;;;;;;;15.53;97.11;98352.62;111260;1204;64001;-89
2021/08/31 07:52:08;;;;;;;2.80;2.60;;;;;;;15.58;96.93;98361.61;111248;1197;61472;-88
2021/08/31 07:54:35;;;;;;;3.70;2.70;;;;;;;15.63;96.76;98362.98;111247;1205;61093;-88
2021/08/31 07:57:03;;;;;;;3.20;2.70;;;;;;;15.60;96.62;98368.79;111226;1204;67130;-88
2021/08/31 07:59:30;;;;;;;3.10;2.40;;;;;;;15.54;96.63;98373.54;111201;1204;61083;-88
2021/08/31 08:01:56;;;;;;;2.70;2.10;;;;;;;15.42;96.86;98376.45;111255;1204;62774;-89
2021/08/31 08:04:23;;;;;;;2.10;2.00;;;;;;;15.30;96.93;98376.40;111248;1207;61092;-87
2021/08/31 08:06:50;;;;;;;2.50;2.30;;;;;;;15.18;97.21;98375.36;111281;1203;61148;-88
2021/08/31 08:09:17;;;;;;;2.60;2.40;;;;;;;15.09;97.50;98375.11;111254;1204;65998;-88
2021/08/31 08:11:43;;;;;;;3.00;2.70;;;;;;;15.12;97.57;98376.65;111249;1204;61155;-89
2021/08/31 08:14:10;;;;;;;3.90;3.20;;;;;;;15.19;97.51;98378.47;111129;1207;63842;-88
2021/08/31 08:16:38;;;;;;;2.90;2.70;;;;;;;15.24;97.60;98377.70;111115;1205;61088;-88
2021/08/31 08:19:05;;;;;;;3.10;2.70;;;;;;;15.23;97.58;98377.95;110922;1204;61094;-89
2021/08/31 08:21:31;;;;;;;3.10;2.70;;;;;;;15.23;97.70;98378.14;111061;1200;66020;-88
2021/08/31 08:23:58;;;;;;;3.30;2.70;;;;;;;15.22;97.49;98378.77;111100;1206;61010;-89
2021/08/31 08:26:25;;;;;;;2.70;2.50;;;;;;;15.18;97.67;98382.94;111156;1205;63959;-88
2021/08/31 08:28:52;;;;;;;2.80;2.60;;;;;;;15.11;97.85;98385.02;111130;1205;61031;-90
2021/08/31 08:31:19;;;;;;;2.80;2.60;;;;;;;15.05;98.05;98381.48;111108;1200;61110;-91
2021/08/31 08:33:46;;;;;;;3.10;2.80;;;;;;;14.96;98.22;98382.83;111207;1205;65841;-88
2021/08/31 08:36:13;;;;;;;4.10;3.20;;;;;;;14.88;98.41;98382.11;111139;1199;61337;-88
2021/08/31 08:38:40;;;;;;;3.10;2.90;;;;;;;14.85;98.70;98379.26;111180;1206;64037;-89
2021/08/31 08:41:08;;;;;;;3.10;2.90;;;;;;;14.80;98.76;98384.88;111072;1205;61129;-89
2021/08/31 08:43:36;;;;;;;3.00;2.80;;;;;;;14.76;99.02;98388.17;111154;1203;61108;-89
2021/08/31 08:46:06;;;;;;;3.00;2.80;;;;;;;14.75;99.44;98387.92;111209;1205;65980;-89
2021/08/31 08:48:33;;;;;;;4.00;2.90;;;;;;;14.71;99.53;98389.97;111307;1205;61075;-89
2021/08/31 08:51:03;;;;;;;3.50;3.20;;;;;;;14.71;99.66;98391.45;111190;1205;72753;-90
2021/08/31 08:53:32;;;;;;;3.80;3.50;;;;;;;14.71;99.72;98390.17;110935;1203;61028;-89
2021/08/31 08:56:01;;;;;;;4.00;3.70;;;;;;;14.76;99.88;98389.05;111192;1203;61127;-90
2021/08/31 08:58:28;;;;;;;3.10;2.80;;;;;;;14.81;99.84;98384.97;111165;1198;66050;-89
2021/08/31 09:01:22;;;;;;;3.70;3.30;;;;;;;14.88;99.82;98380.69;111115;1205;61448;-91
2021/08/31 09:03:54;;;;;;;3.40;3.10;;;;;;;14.98;99.81;98381.98;111114;1207;64040;-91
2021/08/31 09:06:22;;;;;;;4.30;3.40;;;;;;;15.08;99.77;98385.06;111204;1205;61036;-91
2021/08/31 09:08:58;;;;;;;3.30;3.00;;;;;;;15.22;99.54;98385.58;111202;1198;60981;-88
2021/08/31 09:11:34;;;;;;;4.00;3.60;;;;;;;15.35;99.36;98385.05;111133;1206;66028;-90
2021/08/31 09:14:20;;;;;;;4.20;3.50;;;;;;;15.45;99.21;98388.90;111056;1206;61195;-90
2021/08/31 09:16:52;;;;;;;3.70;3.40;;;;;;;15.53;98.96;98392.73;111306;1205;62650;-90
2021/08/31 09:19:38;;;;;;;4.70;3.80;;;;;;;15.57;98.98;98389.02;111450;1203;61068;-89
2021/08/31 09:22:19;;;;;;;4.10;3.70;;;;;;;15.53;99.05;98387.75;111185;1198;60993;-91
2021/08/31 09:25:04;;;;;;;3.20;2.90;;;;;;;15.44;98.91;98384.16;111135;1205;66103;-89
2021/08/31 09:27:52;;;;;;;3.90;3.50;;;;;;;15.33;99.11;98379.46;111288;1203;61102;-90
2021/08/31 09:30:23;;;;;;;3.20;2.90;;;;;;;15.39;99.26;98372.24;111128;1205;64145;-90
2021/08/31 09:33:17;;;;;;;4.50;3.30;;;;;;;15.63;98.94;98371.98;111104;1199;61253;-90
2021/08/31 09:35:58;;;;;;;4.50;3.20;;;;;;;15.88;98.60;98371.87;111098;1202;60958;-90
2021/08/31 09:38:24;;;;;;;;;;;;;;;15.96;98.30;98369.01;111131;1207;65737;-92
2021/08/31 09:40:53;;;;;;;4.20;3.30;;;;;;;16.02;98.21;98361.70;111209;1205;61428;-90
2021/08/31 09:43:25;;;;;;;3.30;2.80;;;;;;;16.10;98.02;98361.04;111196;1206;72711;-91
2021/08/31 09:45:55;;;;;;;3.00;2.80;;;;;;;16.17;97.99;98357.48;111193;1199;61139;-89
2021/08/31 09:48:22;;;;;;;3.30;3.00;;;;;;;16.24;97.87;98355.13;111227;1206;61168;-90
2021/08/31 09:50:58;;;;;;;3.00;2.80;;;;;;;16.30;97.53;98353.90;111215;1199;66044;-89
2021/08/31 09:53:29;;;;;;;3.20;2.90;;;;;;;16.40;97.46;98357.89;111277;1205;61092;-90
2021/08/31 09:56:02;;;;;;;3.00;2.70;;;;;;;16.50;97.33;98357.36;111206;1205;62812;-90
2021/08/31 09:58:30;;;;;;;4.20;3.80;;;;;;;16.65;96.86;98352.75;111208;1199;61504;-89
2021/08/31 10:00:57;;;;;;;4.80;4.20;;;;;;;16.78;96.46;98359.68;111255;1205;61073;-90
2021/08/31 10:03:26;;;;;;;4.80;4.20;;;;;;;16.91;96.03;98363.30;111183;1206;67074;-90
2021/08/31 10:05:56;;;;;;;6.80;5.20;;;;;;;16.90;95.95;98365.83;111168;1207;61107;-89
2021/08/31 10:08:23;;;;;;;6.40;5.60;;;;;;;16.98;95.81;98366.35;111224;1205;62695;-90
2021/08/31 10:10:52;;;;;;;6.50;5.00;;;;;;;16.99;95.66;98366.77;111116;1206;61137;-90
2021/08/31 10:13:22;;;;;;;5.30;4.30;;;;;;;16.99;95.48;98368.14;111032;1200;59928;-90
2021/08/31 10:15:54;;;;;;;5.10;4.60;;;;;;;16.91;95.44;98369.73;111035;1206;67592;-89
2021/08/31 10:18:23;;;;;;;6.20;4.60;;;;;;;16.81;95.75;98373.02;111315;1203;61205;-88
2021/08/31 10:20:54;;;;;;;4.10;3.70;;;;;;;16.71;96.11;98374.80;111204;1205;62619;-92
2021/08/31 10:23:27;;;;;;;;;;;;;;;16.59;96.05;98373.46;111232;1202;61067;-89
2021/08/31 10:26:27;;;;;;;6.90;4.00;;;;;;;16.50;96.30;98372.33;111239;1200;61004;-89
2021/08/31 10:29:26;;;;;;;3.90;3.50;;;;;;;16.58;96.47;98377.21;111227;1205;74777;-90
2021/08/31 10:31:55;;;;;;;4.30;3.60;;;;;;;16.81;96.03;98375.81;111091;1205;61078;-90
2021/08/31 10:34:32;;;;;;;5.80;3.90;;;;;;;17.13;95.57;98370.00;111117;1203;63680;-91
2021/08/31 10:37:11;;;;;;;4.60;4.10;;;;;;;17.48;95.20;98363.95;111170;1199;61523;-89
2021/08/31 10:39:54;;;;;;;5.60;3.60;;;;;;;17.74;94.48;98365.12;112446;1200;61075;-87
2021/08/31 10:42:24;;;;;;;3.40;3.10;;;;;;;17.69;94.16;98370.83;114693;1201;64633;-87
2021/08/31 10:44:52;;;;;;;4.70;3.50;;;;;;;17.63;93.96;98377.99;114404;1201;61479;-89
2021/08/31 10:47:28;;;;;;;3.90;3.50;;;;;;;17.77;94.00;98373.63;111192;1205;64393;-90
2021/08/31 10:49:56;;;;;;;3.90;3.60;;;;;;;17.92;93.80;98367.54;111106;1199;61068;-90
2021/08/31 10:52:46;;;;;;;3.50;3.20;;;;;;;17.99;93.51;98363.23;111487;1202;61422;-91
2021/08/31 10:55:27;;;;;;;4.10;3.50;;;;;;;17.84;93.44;98372.58;111090;1205;64539;-90
2021/08/31 10:57:56;;;;;;;3.40;3.10;;;;;;;17.62;93.99;98376.70;111130;1205;68821;-91
2021/08/31 11:00:28;;;;;;;4.00;3.30;;;;;;;17.48;94.28;98380.86;111174;1203;64051;-90
2021/08/31 11:02:58;;;;;;;4.10;3.20;;;;;;;17.36;94.35;98385.71;111263;1198;61037;-90
2021/08/31 11:05:28;;;;;;;5.40;4.60;;;;;;;17.16;94.75;98388.10;111146;1199;61081;-91
2021/08/31 11:08:01;;;;;;;6.50;5.80;;;;;;;17.04;95.38;98387.59;111298;1204;64670;-90
2021/08/31 11:10:32;;;;;;;8.60;7.70;;;;;;;16.95;95.79;98391.03;111318;1205;61098;-90
2021/08/31 11:13:18;;;;;;;8.00;7.20;;;;;;;16.84;96.18;98391.02;111314;1204;63978;-90
2021/08/31 11:15:49;;;;;;;6.90;5.70;;;;;;;16.79;96.67;98401.08;111245;1205;61533;-90
2021/08/31 11:18:21;;;;;;;3.10;2.90;;;;;;;16.78;96.90;98403.92;111042;1199;61097;-89
2021/08/31 11:20:49;;;;;;;2.90;2.60;;;;;;;16.75;96.97;98399.66;111139;1205;67215;-90
2021/08/31 11:23:19;;;;;;;2.60;2.40;;;;;;;16.73;97.16;98395.91;111224;1199;61102;-90
2021/08/31 11:25:58;;;;;;;4.10;2.50;;;;;;;16.72;97.29;98394.29;111156;1206;62670;-91